sensor_id;sensor_type;location;lat;lon;timestamp;temperature;humidity
17178;DHT22;8704;52.006;4.374;2022-08-19T00:01:43;18.40;99.90
17178;DHT22;8704;52.006;4.374;2022-08-19T00:04:20;18.50;99.90
17178;DHT22;8704;52.006;4.374;2022-08-19T00:06:49;18.30;99.90
17178;DHT22;8704;52.006;4.374;2022-08-19T00:09:20;18.30;99.90
17178;DHT22;8704;52.006;4.374;2022-08-19T00:11:49;18.30;99.90
17178;DHT22;8704;52.006;4.374;2022-08-19T00:14:18;18.30;99.90
17178;DHT22;8704;52.006;4.374;2022-08-19T00:16:48;18.20;99.90
17178;DHT22;8704;52.006;4.374;2022-08-19T00:19:17;18.30;99.90
17178;DHT22;8704;52.006;4.374;2022-08-19T00:21:45;18.20;99.90
17178;DHT22;8704;52.006;4.374;2022-08-19T00:24:14;18.30;99.90
17178;DHT22;8704;52.006;4.374;2022-08-19T00:26:44;18.20;99.90
17178;DHT22;8704;52.006;4.374;2022-08-19T00:29:15;18.20;99.90
17178;DHT22;8704;52.006;4.374;2022-08-19T00:31:44;18.10;99.90
17178;DHT22;8704;52.006;4.374;2022-08-19T00:34:14;18.10;99.90
17178;DHT22;8704;52.006;4.374;2022-08-19T00:36:43;18.10;99.90
17178;DHT22;8704;52.006;4.374;2022-08-19T00:39:12;18.10;99.90
17178;DHT22;8704;52.006;4.374;2022-08-19T00:41:40;18.00;99.90
17178;DHT22;8704;52.006;4.374;2022-08-19T00:44:12;18.00;99.90
17178;DHT22;8704;52.006;4.374;2022-08-19T00:46:44;17.90;99.90
17178;DHT22;8704;52.006;4.374;2022-08-19T00:49:27;18.00;99.90
17178;DHT22;8704;52.006;4.374;2022-08-19T00:52:02;17.90;99.90
17178;DHT22;8704;52.006;4.374;2022-08-19T00:54:31;17.90;99.90
17178;DHT22;8704;52.006;4.374;2022-08-19T00:56:59;17.90;99.90
17178;DHT22;8704;52.006;4.374;2022-08-19T00:59:30;17.90;99.90
17178;DHT22;8704;52.006;4.374;2022-08-19T01:02:18;17.90;99.90
17178;DHT22;8704;52.006;4.374;2022-08-19T01:04:46;17.90;99.90
17178;DHT22;8704;52.006;4.374;2022-08-19T01:07:16;17.90;99.90
17178;DHT22;8704;52.006;4.374;2022-08-19T01:09:45;17.90;99.90
17178;DHT22;8704;52.006;4.374;2022-08-19T01:12:14;17.90;99.90
17178;DHT22;8704;52.006;4.374;2022-08-19T01:14:44;17.90;99.90
17178;DHT22;8704;52.006;4.374;2022-08-19T01:17:13;17.90;99.90
17178;DHT22;8704;52.006;4.374;2022-08-19T01:19:43;17.90;99.90
17178;DHT22;8704;52.006;4.374;2022-08-19T01:22:19;17.90;99.90
17178;DHT22;8704;52.006;4.374;2022-08-19T01:25:00;17.90;99.90
17178;DHT22;8704;52.006;4.374;2022-08-19T01:27:38;17.80;99.90
17178;DHT22;8704;52.006;4.374;2022-08-19T01:30:11;17.80;99.90
17178;DHT22;8704;52.006;4.374;2022-08-19T01:32:39;17.80;99.90
17178;DHT22;8704;52.006;4.374;2022-08-19T01:35:09;17.80;99.90
17178;DHT22;8704;52.006;4.374;2022-08-19T01:37:48;17.80;99.90
17178;DHT22;8704;52.006;4.374;2022-08-19T01:40:18;17.90;99.90
17178;DHT22;8704;52.006;4.374;2022-08-19T01:42:47;17.80;99.90
17178;DHT22;8704;52.006;4.374;2022-08-19T01:45:16;17.80;99.90
17178;DHT22;8704;52.006;4.374;2022-08-19T01:47:44;17.90;99.90
17178;DHT22;8704;52.006;4.374;2022-08-19T01:50:28;17.80;99.90
17178;DHT22;8704;52.006;4.374;2022-08-19T01:52:56;18.20;99.90
17178;DHT22;8704;52.006;4.374;2022-08-19T01:55:35;17.80;99.90
17178;DHT22;8704;52.006;4.374;2022-08-19T01:58:09;17.80;99.90
17178;DHT22;8704;52.006;4.374;2022-08-19T02:00:38;17.80;99.90
17178;DHT22;8704;52.006;4.374;2022-08-19T02:03:06;17.70;99.90
17178;DHT22;8704;52.006;4.374;2022-08-19T02:05:36;17.70;99.90
17178;DHT22;8704;52.006;4.374;2022-08-19T02:08:04;17.80;99.90
17178;DHT22;8704;52.006;4.374;2022-08-19T02:10:37;17.70;99.90
17178;DHT22;8704;52.006;4.374;2022-08-19T02:13:05;17.80;99.90
17178;DHT22;8704;52.006;4.374;2022-08-19T02:15:33;18.00;99.90
17178;DHT22;8704;52.006;4.374;2022-08-19T02:18:01;17.80;99.90
17178;DHT22;8704;52.006;4.374;2022-08-19T02:20:29;17.70;99.90
17178;DHT22;8704;52.006;4.374;2022-08-19T02:22:57;17.80;99.90
17178;DHT22;8704;52.006;4.374;2022-08-19T02:25:25;17.70;99.90
17178;DHT22;8704;52.006;4.374;2022-08-19T02:27:54;17.70;99.90
17178;DHT22;8704;52.006;4.374;2022-08-19T02:30:22;18.20;99.90
17178;DHT22;8704;52.006;4.374;2022-08-19T02:32:51;17.70;99.90
17178;DHT22;8704;52.006;4.374;2022-08-19T02:35:19;17.70;99.90
17178;DHT22;8704;52.006;4.374;2022-08-19T02:37:47;17.70;99.90
17178;DHT22;8704;52.006;4.374;2022-08-19T02:40:33;17.70;99.90
17178;DHT22;8704;52.006;4.374;2022-08-19T02:43:04;17.70;99.90
17178;DHT22;8704;52.006;4.374;2022-08-19T02:45:35;17.70;99.90
17178;DHT22;8704;52.006;4.374;2022-08-19T02:48:07;17.70;99.90
17178;DHT22;8704;52.006;4.374;2022-08-19T02:50:48;17.70;99.90
17178;DHT22;8704;52.006;4.374;2022-08-19T02:53:19;17.70;99.90
17178;DHT22;8704;52.006;4.374;2022-08-19T02:55:48;17.70;99.90
17178;DHT22;8704;52.006;4.374;2022-08-19T02:58:19;17.70;99.90
17178;DHT22;8704;52.006;4.374;2022-08-19T03:00:49;17.70;99.90
17178;DHT22;8704;52.006;4.374;2022-08-19T03:03:18;17.70;99.90
17178;DHT22;8704;52.006;4.374;2022-08-19T03:05:46;17.70;99.90
17178;DHT22;8704;52.006;4.374;2022-08-19T03:08:22;17.60;99.90
17178;DHT22;8704;52.006;4.374;2022-08-19T03:10:51;17.60;99.90
17178;DHT22;8704;52.006;4.374;2022-08-19T03:13:21;17.50;99.90
17178;DHT22;8704;52.006;4.374;2022-08-19T03:15:49;17.60;99.90
17178;DHT22;8704;52.006;4.374;2022-08-19T03:18:17;17.50;99.90
17178;DHT22;8704;52.006;4.374;2022-08-19T03:20:51;17.60;99.90
17178;DHT22;8704;52.006;4.374;2022-08-19T03:23:21;17.60;99.90
17178;DHT22;8704;52.006;4.374;2022-08-19T03:25:51;17.60;99.90
17178;DHT22;8704;52.006;4.374;2022-08-19T03:28:33;17.60;99.90
17178;DHT22;8704;52.006;4.374;2022-08-19T03:31:04;17.60;99.90
17178;DHT22;8704;52.006;4.374;2022-08-19T03:33:53;17.50;99.90
17178;DHT22;8704;52.006;4.374;2022-08-19T03:36:22;17.50;99.90
17178;DHT22;8704;52.006;4.374;2022-08-19T03:38:55;17.50;99.90
17178;DHT22;8704;52.006;4.374;2022-08-19T03:41:28;17.50;99.90
17178;DHT22;8704;52.006;4.374;2022-08-19T03:44:14;17.50;99.90
17178;DHT22;8704;52.006;4.374;2022-08-19T03:46:46;17.50;99.90
17178;DHT22;8704;52.006;4.374;2022-08-19T03:49:14;17.50;99.90
17178;DHT22;8704;52.006;4.374;2022-08-19T03:51:45;17.50;99.90
17178;DHT22;8704;52.006;4.374;2022-08-19T03:54:16;17.50;99.90
17178;DHT22;8704;52.006;4.374;2022-08-19T03:56:45;17.50;99.90
17178;DHT22;8704;52.006;4.374;2022-08-19T03:59:18;17.60;99.90
17178;DHT22;8704;52.006;4.374;2022-08-19T04:01:47;17.60;99.90
17178;DHT22;8704;52.006;4.374;2022-08-19T04:04:15;17.60;99.90
17178;DHT22;8704;52.006;4.374;2022-08-19T04:06:45;17.70;99.90
17178;DHT22;8704;52.006;4.374;2022-08-19T04:09:14;17.70;99.90
17178;DHT22;8704;52.006;4.374;2022-08-19T04:11:43;17.70;99.90
17178;DHT22;8704;52.006;4.374;2022-08-19T04:14:16;17.90;99.90
17178;DHT22;8704;52.006;4.374;2022-08-19T04:16:44;17.80;99.90
17178;DHT22;8704;52.006;4.374;2022-08-19T04:19:13;17.80;99.90
17178;DHT22;8704;52.006;4.374;2022-08-19T04:21:44;17.80;99.90
17178;DHT22;8704;52.006;4.374;2022-08-19T04:24:13;17.80;99.90
17178;DHT22;8704;52.006;4.374;2022-08-19T04:26:41;17.90;99.90
17178;DHT22;8704;52.006;4.374;2022-08-19T04:29:12;17.90;99.90
17178;DHT22;8704;52.006;4.374;2022-08-19T04:31:43;17.90;99.90
17178;DHT22;8704;52.006;4.374;2022-08-19T04:34:14;17.90;99.90
17178;DHT22;8704;52.006;4.374;2022-08-19T04:36:43;18.00;99.90
17178;DHT22;8704;52.006;4.374;2022-08-19T04:39:14;18.00;99.90
17178;DHT22;8704;52.006;4.374;2022-08-19T04:41:43;18.00;99.90
17178;DHT22;8704;52.006;4.374;2022-08-19T04:44:30;18.10;99.90
17178;DHT22;8704;52.006;4.374;2022-08-19T04:47:00;18.10;99.90
17178;DHT22;8704;52.006;4.374;2022-08-19T04:49:37;18.10;99.90
17178;DHT22;8704;52.006;4.374;2022-08-19T04:52:05;18.20;99.90
17178;DHT22;8704;52.006;4.374;2022-08-19T04:54:35;18.20;99.90
17178;DHT22;8704;52.006;4.374;2022-08-19T04:57:07;18.30;99.90
17178;DHT22;8704;52.006;4.374;2022-08-19T04:59:37;18.30;99.90
17178;DHT22;8704;52.006;4.374;2022-08-19T05:02:09;18.30;99.90
17178;DHT22;8704;52.006;4.374;2022-08-19T05:04:37;18.30;99.90
17178;DHT22;8704;52.006;4.374;2022-08-19T05:07:07;18.30;99.90
17178;DHT22;8704;52.006;4.374;2022-08-19T05:09:36;18.40;99.90
17178;DHT22;8704;52.006;4.374;2022-08-19T05:12:24;18.50;99.90
17178;DHT22;8704;52.006;4.374;2022-08-19T05:14:55;18.50;99.90
17178;DHT22;8704;52.006;4.374;2022-08-19T05:17:25;18.50;99.90
17178;DHT22;8704;52.006;4.374;2022-08-19T05:19:59;18.50;99.90
17178;DHT22;8704;52.006;4.374;2022-08-19T05:22:46;18.60;99.90
17178;DHT22;8704;52.006;4.374;2022-08-19T05:25:16;18.60;99.90
17178;DHT22;8704;52.006;4.374;2022-08-19T05:27:46;18.50;99.90
17178;DHT22;8704;52.006;4.374;2022-08-19T05:30:15;18.60;99.90
17178;DHT22;8704;52.006;4.374;2022-08-19T05:32:44;18.70;99.90
17178;DHT22;8704;52.006;4.374;2022-08-19T05:35:12;18.70;99.90
17178;DHT22;8704;52.006;4.374;2022-08-19T05:37:40;18.70;99.90
17178;DHT22;8704;52.006;4.374;2022-08-19T05:40:09;18.60;99.90
17178;DHT22;8704;52.006;4.374;2022-08-19T05:42:37;18.80;99.90
17178;DHT22;8704;52.006;4.374;2022-08-19T05:45:06;18.80;99.90
17178;DHT22;8704;52.006;4.374;2022-08-19T05:47:35;18.90;99.90
17178;DHT22;8704;52.006;4.374;2022-08-19T05:50:09;18.90;99.90
17178;DHT22;8704;52.006;4.374;2022-08-19T05:52:37;18.90;99.90
17178;DHT22;8704;52.006;4.374;2022-08-19T05:55:15;18.90;99.90
17178;DHT22;8704;52.006;4.374;2022-08-19T05:57:43;19.00;99.90
17178;DHT22;8704;52.006;4.374;2022-08-19T06:00:12;19.00;99.90
17178;DHT22;8704;52.006;4.374;2022-08-19T06:02:41;19.00;99.90
17178;DHT22;8704;52.006;4.374;2022-08-19T06:05:10;19.10;99.90
17178;DHT22;8704;52.006;4.374;2022-08-19T06:07:39;19.10;99.90
17178;DHT22;8704;52.006;4.374;2022-08-19T06:10:09;19.10;99.90
17178;DHT22;8704;52.006;4.374;2022-08-19T06:12:38;19.10;99.90
17178;DHT22;8704;52.006;4.374;2022-08-19T06:15:08;19.10;99.90
17178;DHT22;8704;52.006;4.374;2022-08-19T06:17:36;19.00;99.90
17178;DHT22;8704;52.006;4.374;2022-08-19T06:20:06;19.30;99.90
17178;DHT22;8704;52.006;4.374;2022-08-19T06:22:39;19.30;99.90
17178;DHT22;8704;52.006;4.374;2022-08-19T06:25:07;19.30;99.90
17178;DHT22;8704;52.006;4.374;2022-08-19T06:27:37;19.40;99.90
17178;DHT22;8704;52.006;4.374;2022-08-19T06:30:25;19.40;99.90
17178;DHT22;8704;52.006;4.374;2022-08-19T06:32:53;19.50;99.90
17178;DHT22;8704;52.006;4.374;2022-08-19T06:35:22;19.60;99.90
17178;DHT22;8704;52.006;4.374;2022-08-19T06:37:52;19.60;99.90
17178;DHT22;8704;52.006;4.374;2022-08-19T06:40:21;19.60;99.90
17178;DHT22;8704;52.006;4.374;2022-08-19T06:42:49;19.70;99.90
17178;DHT22;8704;52.006;4.374;2022-08-19T06:45:21;19.90;99.90
17178;DHT22;8704;52.006;4.374;2022-08-19T06:47:50;19.90;99.90
17178;DHT22;8704;52.006;4.374;2022-08-19T06:50:21;20.10;99.90
17178;DHT22;8704;52.006;4.374;2022-08-19T06:52:52;20.00;99.90
17178;DHT22;8704;52.006;4.374;2022-08-19T06:55:21;20.20;99.90
17178;DHT22;8704;52.006;4.374;2022-08-19T06:57:49;20.20;99.90
17178;DHT22;8704;52.006;4.374;2022-08-19T07:00:20;20.10;99.90
17178;DHT22;8704;52.006;4.374;2022-08-19T07:02:48;20.20;99.90
17178;DHT22;8704;52.006;4.374;2022-08-19T07:05:24;20.20;99.90
17178;DHT22;8704;52.006;4.374;2022-08-19T07:07:53;20.30;99.90
17178;DHT22;8704;52.006;4.374;2022-08-19T07:10:28;20.30;99.90
17178;DHT22;8704;52.006;4.374;2022-08-19T07:12:58;20.30;99.90
17178;DHT22;8704;52.006;4.374;2022-08-19T07:15:26;20.40;99.90
17178;DHT22;8704;52.006;4.374;2022-08-19T07:17:54;20.50;99.90
17178;DHT22;8704;52.006;4.374;2022-08-19T07:20:25;20.40;99.90
17178;DHT22;8704;52.006;4.374;2022-08-19T07:22:56;20.50;99.90
17178;DHT22;8704;52.006;4.374;2022-08-19T07:25:24;20.50;99.90
17178;DHT22;8704;52.006;4.374;2022-08-19T07:27:59;20.60;99.90
17178;DHT22;8704;52.006;4.374;2022-08-19T07:30:27;20.60;99.90
17178;DHT22;8704;52.006;4.374;2022-08-19T07:32:57;20.70;99.90
17178;DHT22;8704;52.006;4.374;2022-08-19T07:35:29;20.70;99.90
17178;DHT22;8704;52.006;4.374;2022-08-19T07:38:00;20.80;99.90
17178;DHT22;8704;52.006;4.374;2022-08-19T07:40:30;20.80;99.90
17178;DHT22;8704;52.006;4.374;2022-08-19T07:42:58;20.80;99.90
17178;DHT22;8704;52.006;4.374;2022-08-19T07:45:26;20.80;99.90
17178;DHT22;8704;52.006;4.374;2022-08-19T07:47:55;21.00;99.90
17178;DHT22;8704;52.006;4.374;2022-08-19T07:50:23;21.00;99.90
17178;DHT22;8704;52.006;4.374;2022-08-19T07:52:51;21.00;99.90
17178;DHT22;8704;52.006;4.374;2022-08-19T07:55:23;21.00;99.90
17178;DHT22;8704;52.006;4.374;2022-08-19T07:58:09;21.60;99.90
17178;DHT22;8704;52.006;4.374;2022-08-19T08:00:37;21.20;99.90
17178;DHT22;8704;52.006;4.374;2022-08-19T08:03:05;21.20;99.90
17178;DHT22;8704;52.006;4.374;2022-08-19T08:05:35;21.30;99.90
17178;DHT22;8704;52.006;4.374;2022-08-19T08:08:21;21.30;99.90
17178;DHT22;8704;52.006;4.374;2022-08-19T08:11:12;21.30;99.90
17178;DHT22;8704;52.006;4.374;2022-08-19T08:13:41;21.50;99.90
17178;DHT22;8704;52.006;4.374;2022-08-19T08:16:10;21.50;99.90
17178;DHT22;8704;52.006;4.374;2022-08-19T08:18:40;21.50;99.90
17178;DHT22;8704;52.006;4.374;2022-08-19T08:21:16;21.50;99.90
17178;DHT22;8704;52.006;4.374;2022-08-19T08:23:44;21.60;99.90
17178;DHT22;8704;52.006;4.374;2022-08-19T08:26:13;21.70;99.90
17178;DHT22;8704;52.006;4.374;2022-08-19T08:28:44;21.70;99.90
17178;DHT22;8704;52.006;4.374;2022-08-19T08:31:15;21.70;99.90
17178;DHT22;8704;52.006;4.374;2022-08-19T08:33:46;21.70;99.90
17178;DHT22;8704;52.006;4.374;2022-08-19T08:36:15;21.90;99.90
17178;DHT22;8704;52.006;4.374;2022-08-19T08:38:44;21.80;99.90
17178;DHT22;8704;52.006;4.374;2022-08-19T08:41:21;22.00;99.90
17178;DHT22;8704;52.006;4.374;2022-08-19T08:43:52;22.10;99.90
17178;DHT22;8704;52.006;4.374;2022-08-19T08:46:24;22.10;99.90
17178;DHT22;8704;52.006;4.374;2022-08-19T08:49:02;22.20;99.90
17178;DHT22;8704;52.006;4.374;2022-08-19T08:51:35;22.20;99.90
17178;DHT22;8704;52.006;4.374;2022-08-19T08:54:12;22.30;99.90
17178;DHT22;8704;52.006;4.374;2022-08-19T08:56:44;22.30;99.90
17178;DHT22;8704;52.006;4.374;2022-08-19T08:59:15;22.30;99.90
17178;DHT22;8704;52.006;4.374;2022-08-19T09:01:44;22.40;99.90
17178;DHT22;8704;52.006;4.374;2022-08-19T09:04:12;22.40;99.90
17178;DHT22;8704;52.006;4.374;2022-08-19T09:06:48;22.50;99.90
17178;DHT22;8704;52.006;4.374;2022-08-19T09:09:21;22.60;99.90
17178;DHT22;8704;52.006;4.374;2022-08-19T09:12:04;22.70;99.90
17178;DHT22;8704;52.006;4.374;2022-08-19T09:14:39;22.80;99.90
17178;DHT22;8704;52.006;4.374;2022-08-19T09:17:18;22.80;99.90
17178;DHT22;8704;52.006;4.374;2022-08-19T09:19:51;22.60;99.90
17178;DHT22;8704;52.006;4.374;2022-08-19T09:22:20;22.70;99.90
17178;DHT22;8704;52.006;4.374;2022-08-19T09:24:54;22.70;99.90
17178;DHT22;8704;52.006;4.374;2022-08-19T09:27:24;22.60;99.90
17178;DHT22;8704;52.006;4.374;2022-08-19T09:30:10;22.50;99.90
17178;DHT22;8704;52.006;4.374;2022-08-19T09:32:39;22.50;99.90
17178;DHT22;8704;52.006;4.374;2022-08-19T09:35:09;22.50;99.90
17178;DHT22;8704;52.006;4.374;2022-08-19T09:37:37;22.60;99.90
17178;DHT22;8704;52.006;4.374;2022-08-19T09:40:07;22.60;99.90
17178;DHT22;8704;52.006;4.374;2022-08-19T09:42:39;22.60;99.90
17178;DHT22;8704;52.006;4.374;2022-08-19T09:45:18;22.70;99.90
17178;DHT22;8704;52.006;4.374;2022-08-19T09:47:49;22.70;99.90
17178;DHT22;8704;52.006;4.374;2022-08-19T09:50:21;22.70;99.90
17178;DHT22;8704;52.006;4.374;2022-08-19T09:52:50;22.80;99.90
17178;DHT22;8704;52.006;4.374;2022-08-19T09:55:25;22.80;99.90
17178;DHT22;8704;52.006;4.374;2022-08-19T09:58:01;22.90;99.90
17178;DHT22;8704;52.006;4.374;2022-08-19T10:00:30;22.90;99.90
17178;DHT22;8704;52.006;4.374;2022-08-19T10:02:58;23.00;99.90
17178;DHT22;8704;52.006;4.374;2022-08-19T10:05:27;23.20;99.90
17178;DHT22;8704;52.006;4.374;2022-08-19T10:08:16;23.50;99.90
17178;DHT22;8704;52.006;4.374;2022-08-19T10:10:47;23.60;99.90
17178;DHT22;8704;52.006;4.374;2022-08-19T10:13:19;23.70;99.90
17178;DHT22;8704;52.006;4.374;2022-08-19T10:15:53;23.70;99.90
17178;DHT22;8704;52.006;4.374;2022-08-19T10:18:23;23.50;99.90
17178;DHT22;8704;52.006;4.374;2022-08-19T10:21:01;23.50;99.90
17178;DHT22;8704;52.006;4.374;2022-08-19T10:23:32;23.60;99.90
17178;DHT22;8704;52.006;4.374;2022-08-19T10:26:01;23.60;99.90
17178;DHT22;8704;52.006;4.374;2022-08-19T10:28:31;23.60;99.90
17178;DHT22;8704;52.006;4.374;2022-08-19T10:31:05;23.70;99.90
17178;DHT22;8704;52.006;4.374;2022-08-19T10:33:34;23.70;99.90
17178;DHT22;8704;52.006;4.374;2022-08-19T10:36:21;23.70;99.90
17178;DHT22;8704;52.006;4.374;2022-08-19T10:38:52;23.60;99.90
17178;DHT22;8704;52.006;4.374;2022-08-19T10:41:26;23.50;99.90
17178;DHT22;8704;52.006;4.374;2022-08-19T10:43:58;23.40;99.90
17178;DHT22;8704;52.006;4.374;2022-08-19T10:46:30;23.30;99.90
17178;DHT22;8704;52.006;4.374;2022-08-19T10:48:59;23.40;99.90
17178;DHT22;8704;52.006;4.374;2022-08-19T10:51:28;23.60;99.90
17178;DHT22;8704;52.006;4.374;2022-08-19T10:54:15;23.30;99.90
17178;DHT22;8704;52.006;4.374;2022-08-19T10:56:56;23.90;99.90
17178;DHT22;8704;52.006;4.374;2022-08-19T10:59:27;23.50;99.90
17178;DHT22;8704;52.006;4.374;2022-08-19T11:02:03;23.30;99.90
17178;DHT22;8704;52.006;4.374;2022-08-19T11:04:31;23.20;99.90
17178;DHT22;8704;52.006;4.374;2022-08-19T11:07:01;23.30;99.90
17178;DHT22;8704;52.006;4.374;2022-08-19T11:09:30;23.20;99.90
17178;DHT22;8704;52.006;4.374;2022-08-19T11:12:00;23.10;99.90
17178;DHT22;8704;52.006;4.374;2022-08-19T11:14:32;23.10;99.90
17178;DHT22;8704;52.006;4.374;2022-08-19T11:17:01;23.00;99.90
17178;DHT22;8704;52.006;4.374;2022-08-19T11:19:30;23.10;99.90
17178;DHT22;8704;52.006;4.374;2022-08-19T11:21:58;23.30;99.90
17178;DHT22;8704;52.006;4.374;2022-08-19T11:24:30;23.30;99.90
17178;DHT22;8704;52.006;4.374;2022-08-19T11:27:04;23.40;99.90
17178;DHT22;8704;52.006;4.374;2022-08-19T11:29:34;23.40;99.90
17178;DHT22;8704;52.006;4.374;2022-08-19T11:32:04;23.30;99.90
17178;DHT22;8704;52.006;4.374;2022-08-19T11:34:32;23.10;99.90
17178;DHT22;8704;52.006;4.374;2022-08-19T11:37:02;23.20;99.90
17178;DHT22;8704;52.006;4.374;2022-08-19T11:39:31;23.30;99.90
17178;DHT22;8704;52.006;4.374;2022-08-19T11:42:00;23.30;99.90
17178;DHT22;8704;52.006;4.374;2022-08-19T11:44:29;23.50;99.90
17178;DHT22;8704;52.006;4.374;2022-08-19T11:47:04;23.50;99.90
17178;DHT22;8704;52.006;4.374;2022-08-19T11:49:34;23.70;99.90
17178;DHT22;8704;52.006;4.374;2022-08-19T11:52:03;23.80;99.90
17178;DHT22;8704;52.006;4.374;2022-08-19T11:54:31;23.70;99.90
17178;DHT22;8704;52.006;4.374;2022-08-19T11:56:59;23.60;99.90
17178;DHT22;8704;52.006;4.374;2022-08-19T11:59:27;23.70;99.90
17178;DHT22;8704;52.006;4.374;2022-08-19T12:01:55;23.80;99.90
17178;DHT22;8704;52.006;4.374;2022-08-19T12:04:25;23.70;99.90
17178;DHT22;8704;52.006;4.374;2022-08-19T12:06:53;24.00;99.90
17178;DHT22;8704;52.006;4.374;2022-08-19T12:09:21;24.10;99.90
17178;DHT22;8704;52.006;4.374;2022-08-19T12:11:49;24.10;99.90
17178;DHT22;8704;52.006;4.374;2022-08-19T12:14:18;24.00;99.90
17178;DHT22;8704;52.006;4.374;2022-08-19T12:16:46;23.80;99.90
17178;DHT22;8704;52.006;4.374;2022-08-19T12:19:18;23.90;99.90
17178;DHT22;8704;52.006;4.374;2022-08-19T12:21:50;24.00;99.90
17178;DHT22;8704;52.006;4.374;2022-08-19T12:24:19;23.70;99.90
17178;DHT22;8704;52.006;4.374;2022-08-19T12:26:50;23.80;99.90
17178;DHT22;8704;52.006;4.374;2022-08-19T12:29:20;24.00;99.90
17178;DHT22;8704;52.006;4.374;2022-08-19T12:31:50;24.30;99.90
17178;DHT22;8704;52.006;4.374;2022-08-19T12:34:17;24.20;99.90
17178;DHT22;8704;52.006;4.374;2022-08-19T12:36:46;24.30;99.90
17178;DHT22;8704;52.006;4.374;2022-08-19T12:39:17;24.50;99.90
17178;DHT22;8704;52.006;4.374;2022-08-19T12:41:45;24.60;99.90
17178;DHT22;8704;52.006;4.374;2022-08-19T12:44:20;24.50;99.90
17178;DHT22;8704;52.006;4.374;2022-08-19T12:46:59;24.50;99.90
17178;DHT22;8704;52.006;4.374;2022-08-19T12:49:30;24.60;99.90
17178;DHT22;8704;52.006;4.374;2022-08-19T12:52:20;24.70;99.90
17178;DHT22;8704;52.006;4.374;2022-08-19T12:54:51;24.70;99.90
17178;DHT22;8704;52.006;4.374;2022-08-19T12:57:21;24.70;99.90
17178;DHT22;8704;52.006;4.374;2022-08-19T12:59:58;24.90;99.90
17178;DHT22;8704;52.006;4.374;2022-08-19T13:02:26;24.80;99.90
17178;DHT22;8704;52.006;4.374;2022-08-19T13:04:54;24.90;99.90
17178;DHT22;8704;52.006;4.374;2022-08-19T13:07:23;24.90;99.90
17178;DHT22;8704;52.006;4.374;2022-08-19T13:09:52;24.80;99.90
17178;DHT22;8704;52.006;4.374;2022-08-19T13:12:20;24.90;99.90
17178;DHT22;8704;52.006;4.374;2022-08-19T13:14:51;24.90;99.90
17178;DHT22;8704;52.006;4.374;2022-08-19T13:17:19;24.90;99.90
17178;DHT22;8704;52.006;4.374;2022-08-19T13:19:47;24.90;99.90
17178;DHT22;8704;52.006;4.374;2022-08-19T13:22:15;24.80;99.90
17178;DHT22;8704;52.006;4.374;2022-08-19T13:24:43;25.00;99.90
17178;DHT22;8704;52.006;4.374;2022-08-19T13:27:14;25.10;99.90
17178;DHT22;8704;52.006;4.374;2022-08-19T13:29:42;25.00;99.90
17178;DHT22;8704;52.006;4.374;2022-08-19T13:32:29;25.00;99.90
17178;DHT22;8704;52.006;4.374;2022-08-19T13:35:15;24.80;99.90
17178;DHT22;8704;52.006;4.374;2022-08-19T13:37:44;24.70;98.30
17178;DHT22;8704;52.006;4.374;2022-08-19T13:40:13;24.90;78.50
17178;DHT22;8704;52.006;4.374;2022-08-19T13:42:48;24.80;62.10
17178;DHT22;8704;52.006;4.374;2022-08-19T13:45:23;25.00;99.90
17178;DHT22;8704;52.006;4.374;2022-08-19T13:47:54;24.90;72.50
17178;DHT22;8704;52.006;4.374;2022-08-19T13:50:27;24.90;82.50
17178;DHT22;8704;52.006;4.374;2022-08-19T13:52:59;25.00;84.10
17178;DHT22;8704;52.006;4.374;2022-08-19T13:55:27;24.90;86.20
17178;DHT22;8704;52.006;4.374;2022-08-19T13:57:58;24.90;99.90
17178;DHT22;8704;52.006;4.374;2022-08-19T14:00:28;25.50;99.90
17178;DHT22;8704;52.006;4.374;2022-08-19T14:02:57;25.50;99.90
17178;DHT22;8704;52.006;4.374;2022-08-19T14:05:26;25.40;81.30
17178;DHT22;8704;52.006;4.374;2022-08-19T14:07:55;25.30;97.80
17178;DHT22;8704;52.006;4.374;2022-08-19T14:10:25;25.60;99.90
17178;DHT22;8704;52.006;4.374;2022-08-19T14:12:54;25.70;94.30
17178;DHT22;8704;52.006;4.374;2022-08-19T14:15:27;25.80;99.90
17178;DHT22;8704;52.006;4.374;2022-08-19T14:17:55;25.60;60.00
17178;DHT22;8704;52.006;4.374;2022-08-19T14:20:24;25.50;69.50
17178;DHT22;8704;52.006;4.374;2022-08-19T14:22:53;25.30;87.10
17178;DHT22;8704;52.006;4.374;2022-08-19T14:25:24;25.10;84.70
17178;DHT22;8704;52.006;4.374;2022-08-19T14:27:52;25.10;99.90
17178;DHT22;8704;52.006;4.374;2022-08-19T14:30:23;25.10;99.90
17178;DHT22;8704;52.006;4.374;2022-08-19T14:32:53;25.00;98.20
17178;DHT22;8704;52.006;4.374;2022-08-19T14:35:22;25.10;99.90
17178;DHT22;8704;52.006;4.374;2022-08-19T14:37:51;25.00;99.90
17178;DHT22;8704;52.006;4.374;2022-08-19T14:40:24;25.00;99.90
17178;DHT22;8704;52.006;4.374;2022-08-19T14:42:53;24.90;99.90
17178;DHT22;8704;52.006;4.374;2022-08-19T14:45:27;24.90;99.90
17178;DHT22;8704;52.006;4.374;2022-08-19T14:47:56;24.70;99.90
17178;DHT22;8704;52.006;4.374;2022-08-19T14:50:26;24.70;99.90
17178;DHT22;8704;52.006;4.374;2022-08-19T14:52:58;24.70;99.90
17178;DHT22;8704;52.006;4.374;2022-08-19T14:55:26;24.70;99.90
17178;DHT22;8704;52.006;4.374;2022-08-19T14:57:54;24.50;99.90
17178;DHT22;8704;52.006;4.374;2022-08-19T15:00:24;24.50;99.90
17178;DHT22;8704;52.006;4.374;2022-08-19T15:02:52;24.50;99.90
17178;DHT22;8704;52.006;4.374;2022-08-19T15:05:22;24.20;99.90
17178;DHT22;8704;52.006;4.374;2022-08-19T15:07:50;23.90;99.90
17178;DHT22;8704;52.006;4.374;2022-08-19T15:10:18;23.70;99.90
17178;DHT22;8704;52.006;4.374;2022-08-19T15:12:47;23.30;99.90
17178;DHT22;8704;52.006;4.374;2022-08-19T15:15:17;23.30;99.90
17178;DHT22;8704;52.006;4.374;2022-08-19T15:17:46;23.00;99.90
17178;DHT22;8704;52.006;4.374;2022-08-19T15:20:16;23.00;99.90
17178;DHT22;8704;52.006;4.374;2022-08-19T15:22:45;22.70;99.90
17178;DHT22;8704;52.006;4.374;2022-08-19T15:25:16;23.20;99.90
17178;DHT22;8704;52.006;4.374;2022-08-19T15:27:45;23.20;99.90
17178;DHT22;8704;52.006;4.374;2022-08-19T15:30:19;23.30;99.90
17178;DHT22;8704;52.006;4.374;2022-08-19T15:32:48;23.40;99.90
17178;DHT22;8704;52.006;4.374;2022-08-19T15:35:16;23.40;99.90
17178;DHT22;8704;52.006;4.374;2022-08-19T15:37:48;23.30;99.90
17178;DHT22;8704;52.006;4.374;2022-08-19T15:40:17;23.20;99.90
17178;DHT22;8704;52.006;4.374;2022-08-19T15:42:46;23.00;99.90
17178;DHT22;8704;52.006;4.374;2022-08-19T15:45:17;22.90;99.90
17178;DHT22;8704;52.006;4.374;2022-08-19T15:47:45;23.00;99.90
17178;DHT22;8704;52.006;4.374;2022-08-19T15:50:16;22.90;99.90
17178;DHT22;8704;52.006;4.374;2022-08-19T15:52:50;23.00;99.90
17178;DHT22;8704;52.006;4.374;2022-08-19T15:55:20;23.00;99.90
17178;DHT22;8704;52.006;4.374;2022-08-19T15:58:01;22.90;99.90
17178;DHT22;8704;52.006;4.374;2022-08-19T16:00:56;22.90;99.90
17178;DHT22;8704;52.006;4.374;2022-08-19T16:03:43;23.10;99.90
17178;DHT22;8704;52.006;4.374;2022-08-19T16:06:30;23.30;99.90
17178;DHT22;8704;52.006;4.374;2022-08-19T16:09:02;23.40;99.90
17178;DHT22;8704;52.006;4.374;2022-08-19T16:11:33;23.40;99.90